Aviation Digital Data Service (ADDS)

Output produced by METARs form (2306 UTC 23 May 2022)
found at http://www.aviationweather.gov/metar/data/
 
DRRN 232200Z 18003KT 8000 NSC 29/18 Q1012 NOSIG
TAF DRRN 231700Z 2318/2424 26006KT 8000 NSC 
     TEMPO 2414/2420 TS SCT033 FEW040CB
       
DRZA 231800Z 14006KT 8000 NSC 37/01 Q1010
TAF DRZA 231700Z 2318/2418 12012KT 6000 NSC 
     TEMPO 2406/2412 3500 DU
       
DRRM 231800Z 00000KT 5000 DU NSC 34/15 Q1010
DRRT 231800Z 32007KT 8000 NSC 33/16 Q1011
DRZR 231800Z 30011KT 6000 NSC 35/15 Q1011
TAF DRZR 231700Z 2318/2418 28008KT 6000 NSC 
     TEMPO 2406/2412 3500 DU